createdAt,value
2022-12-22T00:10:51.140Z,52.9
2022-12-22T00:15:52.254Z,56.5
2022-12-22T00:20:58.013Z,58.4
2022-12-22T00:26:04.301Z,55
2022-12-22T00:31:07.454Z,50.4
2022-12-22T00:36:11.154Z,54.3
2022-12-22T00:41:14.027Z,51.6
2022-12-22T00:46:16.525Z,49.8
2022-12-22T00:51:18.864Z,53.6
2022-12-22T00:56:21.131Z,53.2
2022-12-22T01:01:23.484Z,55.6
2022-12-22T01:06:29.423Z,53.1
2022-12-22T01:11:31.731Z,89.9
2022-12-22T01:16:32.327Z,54.9
2022-12-22T01:21:34.854Z,54
2022-12-22T01:26:36.951Z,58.4
2022-12-22T01:31:38.996Z,57.4
2022-12-22T01:36:41.089Z,55.4
2022-12-22T01:41:43.136Z,55.9
2022-12-22T01:46:45.266Z,55.1
2022-12-22T01:51:48.121Z,56.2
2022-12-22T01:56:50.212Z,57.2
2022-12-22T02:01:52.454Z,55.9
2022-12-22T02:06:59.899Z,56.5
2022-12-22T02:12:02.455Z,58.8
2022-12-22T02:17:04.504Z,57
2022-12-22T02:22:06.752Z,62.1
2022-12-22T02:27:08.845Z,63.2
2022-12-22T02:32:10.969Z,61.1
2022-12-22T02:37:13.121Z,63
2022-12-22T02:42:15.850Z,63.1
2022-12-22T02:47:18.008Z,58.5
2022-12-22T02:52:20.528Z,55.1
2022-12-22T02:57:22.962Z,58.2
2022-12-22T03:02:25.069Z,59.8
2022-12-22T03:07:30.725Z,58.9
2022-12-22T03:12:33.232Z,58.9
2022-12-22T03:17:35.325Z,59.6
2022-12-22T03:22:37.757Z,56.5
2022-12-22T03:27:39.785Z,56.9
2022-12-22T03:32:41.852Z,57.8
2022-12-22T03:37:45.529Z,57.2
2022-12-22T03:42:52.561Z,56.8
2022-12-22T03:47:52.862Z,59.6
2022-12-22T03:53:02.460Z,60
2022-12-22T03:58:05.776Z,59.3
2022-12-22T04:03:08.139Z,63.2
2022-12-22T04:13:21.988Z,60.9
2022-12-22T04:23:28.864Z,63.9
2022-12-22T04:28:32.599Z,63
2022-12-22T04:33:36.804Z,61.5
2022-12-22T04:38:39.396Z,64.8
2022-12-22T04:48:59.787Z,67.2
2022-12-22T04:53:49.093Z,60.7
2022-12-22T04:58:51.208Z,89.6
2022-12-22T05:03:53.359Z,67.5
2022-12-22T05:08:55.743Z,62.9
2022-12-22T05:14:02.136Z,60.9
2022-12-22T05:18:59.161Z,63.1
2022-12-22T05:24:01.529Z,61.1
2022-12-22T05:29:04.192Z,64.1
2022-12-22T05:34:06.347Z,62.8
2022-12-22T05:39:09.110Z,61.7
2022-12-22T05:44:11.451Z,65.9
2022-12-22T05:49:14.658Z,67.8
2022-12-22T05:54:16.768Z,66.3
2022-12-22T05:59:18.895Z,65.7
2022-12-22T06:04:21.648Z,65.8
2022-12-22T06:09:26.574Z,69.9
2022-12-22T06:14:28.910Z,69.2
2022-12-22T06:19:33.876Z,74.7
2022-12-22T06:24:38.486Z,72
2022-12-22T06:29:40.918Z,86
2022-12-22T06:34:43.115Z,84.5
2022-12-22T06:39:45.665Z,75.5
2022-12-22T06:44:48.124Z,79.1
2022-12-22T06:49:50.301Z,77.4
2022-12-22T06:54:53.185Z,73.9
2022-12-22T06:59:57.584Z,71.6
2022-12-22T07:05:00.431Z,77.1
2022-12-22T07:10:02.691Z,101.3
2022-12-22T07:15:04.813Z,74.2
2022-12-22T07:20:06.953Z,81.6
2022-12-22T07:25:09.121Z,75.6
2022-12-22T07:30:11.403Z,76.8
2022-12-22T07:35:13.575Z,78.3
2022-12-22T07:40:15.663Z,75.7
2022-12-22T07:45:17.857Z,74.6
2022-12-22T07:50:19.948Z,72.6
2022-12-22T07:55:22.078Z,76.4
2022-12-22T08:00:24.217Z,71.8
2022-12-22T08:05:26.439Z,76.7
2022-12-22T08:10:28.659Z,75.9
2022-12-22T08:15:30.737Z,68.7
2022-12-22T08:20:33.089Z,72.9
2022-12-22T08:25:35.152Z,70.7
2022-12-22T08:30:38.023Z,68.4
2022-12-22T08:35:40.567Z,66.5
2022-12-22T08:40:42.934Z,68.1
2022-12-22T08:45:45.318Z,67.4
2022-12-22T08:50:47.788Z,67
2022-12-22T08:55:50.748Z,66.7
2022-12-22T09:00:53.015Z,68
2022-12-22T09:05:55.653Z,61.7
2022-12-22T09:10:58.667Z,63.5
2022-12-22T09:16:00.939Z,62.6
2022-12-22T09:21:03.782Z,58
2022-12-22T09:26:05.840Z,62.2
2022-12-22T09:31:08.330Z,62.7
2022-12-22T09:36:10.430Z,56.5
2022-12-22T09:41:12.634Z,59.3
2022-12-22T09:46:14.766Z,62.3
2022-12-22T09:51:21.147Z,60.5
2022-12-22T09:56:19.356Z,62.3
2022-12-22T10:01:21.492Z,59.8
2022-12-22T10:06:24.162Z,57
2022-12-22T10:11:26.470Z,57.7
2022-12-22T10:16:28.517Z,56.9
2022-12-22T10:21:31.021Z,55.9
2022-12-22T10:26:33.713Z,53.9
2022-12-22T10:31:37.145Z,52
2022-12-22T10:36:43.086Z,54.9
2022-12-22T10:41:46.116Z,50.6
2022-12-22T10:46:48.379Z,54.5
2022-12-22T10:51:50.508Z,60.1
2022-12-22T10:56:53.108Z,57.1
2022-12-22T11:01:55.759Z,53.8
2022-12-22T11:06:59.296Z,54.6
2022-12-22T11:12:02.148Z,59.1
2022-12-22T11:17:04.538Z,56.9
2022-12-22T11:22:06.720Z,56.3
2022-12-22T11:27:08.835Z,55.2
2022-12-22T11:32:11.338Z,57.7
2022-12-22T11:37:14.156Z,60.9
2022-12-22T11:42:16.146Z,57.6
2022-12-22T11:47:18.170Z,58.1
2022-12-22T11:52:20.540Z,55.7
2022-12-22T11:57:22.676Z,52.8
2022-12-22T12:02:25.974Z,55.6
2022-12-22T12:07:28.954Z,53
2022-12-22T12:12:31.173Z,50.5
2022-12-22T12:17:34.037Z,89.2
2022-12-22T12:22:34.510Z,50.5
2022-12-22T12:27:36.941Z,51.8
2022-12-22T12:32:38.943Z,95.4
2022-12-22T12:37:39.326Z,55.7
2022-12-22T12:42:41.388Z,52.8
2022-12-22T12:47:43.546Z,52.2
2022-12-22T12:52:46.359Z,56.8
2022-12-22T12:57:48.526Z,54.5
2022-12-22T13:02:50.664Z,56.3
2022-12-22T13:07:53.747Z,54.6
2022-12-22T13:12:55.978Z,54.5
2022-12-22T13:17:58.080Z,52.5
2022-12-22T13:23:01.213Z,54.5
2022-12-22T13:28:03.423Z,54.5
2022-12-22T13:33:05.671Z,58
2022-12-22T13:38:07.929Z,62.1
2022-12-22T13:43:10.007Z,58.4
2022-12-22T13:48:12.002Z,54.8
2022-12-22T13:53:28.244Z,57.5
2022-12-22T13:58:22.758Z,62
2022-12-22T14:03:49.885Z,55
2022-12-22T14:08:34.709Z,56.6
2022-12-22T14:13:36.916Z,62.6
2022-12-22T14:18:39.023Z,59.6
2022-12-22T14:23:41.091Z,59.9
2022-12-22T14:28:43.131Z,59.3
2022-12-22T14:33:45.626Z,62.6
2022-12-22T14:38:47.960Z,58.8
2022-12-22T14:43:50.352Z,62.3
2022-12-22T14:48:52.263Z,64.1
2022-12-22T14:53:54.296Z,64.3
2022-12-22T14:58:56.738Z,66.9
2022-12-22T15:03:59.009Z,67.5
2022-12-22T15:09:01.337Z,67.6
2022-12-22T15:14:05.967Z,68.8
2022-12-22T15:19:08.042Z,68.3
2022-12-22T15:24:10.054Z,68.5
2022-12-22T15:29:12.093Z,71.8
2022-12-22T15:34:14.602Z,69.9
2022-12-22T15:39:19.666Z,68.3
2022-12-22T15:44:21.663Z,68.8
2022-12-22T15:49:24.005Z,69.6
2022-12-22T15:54:26.025Z,71
2022-12-22T15:59:28.176Z,67
2022-12-22T16:04:30.321Z,69.8
2022-12-22T16:09:32.913Z,71.5
2022-12-22T16:14:39.331Z,67.4
2022-12-22T16:19:41.920Z,69.3
2022-12-22T16:24:44.133Z,67.9
2022-12-22T16:29:46.299Z,72.7
2022-12-22T16:34:49.569Z,69.6
2022-12-22T16:39:54.812Z,66.8
2022-12-22T16:44:59.938Z,70.4
2022-12-22T16:50:02.314Z,69.5
2022-12-22T16:55:04.614Z,65.1
2022-12-22T17:00:06.708Z,63.3
2022-12-22T17:05:08.073Z,66
2022-12-22T17:10:10.471Z,64.2
2022-12-22T17:15:12.500Z,61.4
2022-12-22T17:20:17.548Z,63.3
2022-12-22T17:25:19.551Z,65.1
2022-12-22T17:30:21.744Z,73.5
2022-12-22T17:35:25.052Z,67.6
2022-12-22T17:40:27.519Z,67.1
2022-12-22T17:45:30.392Z,70.9
2022-12-22T17:50:33.238Z,75.5
2022-12-22T18:00:41.302Z,75.3
2022-12-22T18:05:43.458Z,75.5
2022-12-22T18:10:45.656Z,73.3
2022-12-22T18:15:49.267Z,74.9
2022-12-22T18:21:05.539Z,73.9
2022-12-22T18:25:59.847Z,78.9
2022-12-22T18:31:01.885Z,75.4
2022-12-22T18:36:06.093Z,72.7
2022-12-22T18:41:08.771Z,79
2022-12-22T18:46:10.789Z,75.5
2022-12-22T18:51:12.994Z,75.9
2022-12-22T18:56:14.977Z,80.8
2022-12-22T19:01:17.095Z,85.9
2022-12-22T19:06:19.698Z,82.1
2022-12-22T19:11:21.983Z,79.9
2022-12-22T19:16:24.103Z,84.2
2022-12-22T19:21:26.873Z,78.7
2022-12-22T19:26:29.552Z,78.7
2022-12-22T19:31:32.276Z,79.6
2022-12-22T19:36:35.643Z,78.3
2022-12-22T19:41:38.217Z,72.5
2022-12-22T19:46:40.330Z,74.2
2022-12-22T19:51:43.123Z,75.7
2022-12-22T19:56:45.836Z,72.2
2022-12-22T20:01:48.188Z,71.6
2022-12-22T20:06:51.884Z,72.1
2022-12-22T20:11:54.032Z,70.4
2022-12-22T20:16:58.277Z,70.4
2022-12-22T20:22:00.749Z,77.1
2022-12-22T20:27:02.999Z,80.6
2022-12-22T20:32:05.185Z,81.6
2022-12-22T20:37:08.165Z,82.5
2022-12-22T20:42:10.411Z,84
2022-12-22T20:47:20.325Z,80.4
2022-12-22T20:52:14.822Z,85.1
2022-12-22T20:57:17.077Z,82.8
2022-12-22T21:02:19.254Z,87.7
2022-12-22T21:07:23.051Z,84.1
2022-12-22T21:12:25.139Z,84.4
2022-12-22T21:17:27.146Z,87.8
2022-12-22T21:22:29.177Z,86.1
2022-12-22T21:27:31.188Z,96
2022-12-22T21:32:35.664Z,92.3
2022-12-22T21:37:38.219Z,99.6
2022-12-22T21:42:40.307Z,92.7
2022-12-22T21:47:42.415Z,95.4
2022-12-22T21:52:44.528Z,100.8
2022-12-22T21:57:50.053Z,109
2022-12-22T22:02:52.575Z,99.2
2022-12-22T22:07:53.501Z,97.4
2022-12-22T22:12:57.872Z,97.9
2022-12-22T22:18:04.630Z,108.6
2022-12-22T22:23:09.363Z,104.8
2022-12-22T22:28:11.833Z,100.6
2022-12-22T22:33:13.879Z,101.7
2022-12-22T22:38:16.512Z,108.6
2022-12-22T22:43:18.538Z,107
2022-12-22T22:48:20.765Z,108.7
2022-12-22T22:53:22.950Z,105.2
2022-12-22T22:58:24.945Z,101.7
2022-12-22T23:03:27.056Z,109.1
2022-12-22T23:08:29.720Z,106.7
2022-12-22T23:13:31.796Z,115.2
2022-12-22T23:18:33.882Z,114.7
2022-12-22T23:23:35.999Z,117.9
2022-12-22T23:28:38.532Z,115.7
2022-12-22T23:33:40.550Z,122.9
2022-12-22T23:38:42.721Z,128.2
2022-12-22T23:43:44.747Z,129.9
2022-12-22T23:53:48.912Z,136.5
2022-12-22T23:58:54.742Z,127.5
